Time;durP1;ratioP1;P1;durP2;ratioP2;P2;SDS_P1;SDS_P2;PMS_P1;PMS_P2;Temp;Humidity;BMP_temperature;BMP_pressure;BME280_temperature;BME280_humidity;BME280_pressure;Samples;Min_cycle;Max_cycle;Signal;HPM_P1;HPM_P2
2024/03/31 00:02:18;;;;;;;0.10;0.10;;;;;;;11.47;68.41;98727.03;7368002;19;20002;-63
2024/03/31 00:04:48;;;;;;;0.10;0.10;;;;;;;11.55;67.17;98739.63;7362481;19;20014;-63
2024/03/31 00:07:13;;;;;;;0.10;0.10;;;;;;;11.43;66.83;98730.75;7366092;19;20771;-64
2024/03/31 00:09:39;;;;;;;0.10;0.10;;;;;;;11.53;66.80;98747.56;7363258;19;20023;-63
2024/03/31 00:12:04;;;;;;;0.10;0.10;;;;;;;11.33;66.99;98724.38;7365431;19;20010;-63
2024/03/31 00:14:32;;;;;;;0.10;0.10;;;;;;;11.53;66.45;98752.81;7362227;19;20435;-63
2024/03/31 00:16:58;;;;;;;0.10;0.10;;;;;;;11.53;66.50;98768.50;7365053;19;20021;-64
2024/03/31 00:19:23;;;;;;;0.10;0.10;;;;;;;11.53;67.19;98742.34;7364569;19;20082;-63
2024/03/31 00:21:49;;;;;;;0.10;0.10;;;;;;;11.50;67.40;98700.69;7360486;19;20027;-63
2024/03/31 00:24:15;;;;;;;0.10;0.10;;;;;;;11.49;68.07;98698.19;7367445;19;20003;-63
2024/03/31 00:26:41;;;;;;;0.10;0.10;;;;;;;11.38;68.31;98686.59;7365223;19;20054;-63
2024/03/31 00:29:06;;;;;;;0.10;0.10;;;;;;;11.41;67.94;98690.81;7364785;19;20009;-63
2024/03/31 00:31:31;;;;;;;0.20;0.20;;;;;;;11.42;68.11;98687.25;7354697;19;20011;-63
2024/03/31 00:33:57;;;;;;;0.10;0.10;;;;;;;11.41;68.74;98691.63;7364086;19;20006;-63
2024/03/31 00:36:22;;;;;;;0.10;0.10;;;;;;;11.39;68.48;98698.72;7367414;19;20003;-63
2024/03/31 00:38:47;;;;;;;0.10;0.10;;;;;;;11.37;68.31;98704.97;7359418;19;20518;-63
2024/03/31 00:41:13;;;;;;;0.10;0.10;;;;;;;11.36;68.32;98708.53;7365538;19;20001;-63
2024/03/31 00:43:38;;;;;;;0.20;0.20;;;;;;;11.37;68.31;98710.19;7354105;19;20712;-63
2024/03/31 00:46:04;;;;;;;0.10;0.10;;;;;;;11.24;68.32;98683.91;7359270;19;20074;-64
2024/03/31 00:48:29;;;;;;;0.10;0.10;;;;;;;11.26;68.40;98682.06;7363890;19;19999;-63
2024/03/31 00:50:54;;;;;;;0.20;0.20;;;;;;;11.35;67.45;98696.34;7361397;19;20001;-63
2024/03/31 00:53:20;;;;;;;0.10;0.10;;;;;;;11.32;67.41;98696.56;7363011;19;20352;-63
2024/03/31 00:55:45;;;;;;;0.10;0.10;;;;;;;11.17;67.71;98673.00;7366086;19;20002;-63
2024/03/31 00:58:11;;;;;;;0.10;0.10;;;;;;;11.33;67.64;98698.22;7360356;19;20013;-63
2024/03/31 01:00:36;;;;;;;0.10;0.10;;;;;;;11.17;68.02;98667.75;7365241;19;19994;-63
2024/03/31 01:03:02;;;;;;;0.10;0.10;;;;;;;11.33;68.01;98695.63;7363318;19;20627;-63
2024/03/31 01:05:28;;;;;;;0.10;0.10;;;;;;;11.32;68.16;98701.78;7357783;19;20006;-63
2024/03/31 01:07:54;;;;;;;0.10;0.10;;;;;;;11.34;68.01;98705.13;7360500;19;20030;-63
2024/03/31 01:10:19;;;;;;;0.10;0.10;;;;;;;11.34;68.42;98699.91;7356215;19;20112;-63
2024/03/31 01:12:45;;;;;;;0.10;0.10;;;;;;;11.32;68.22;98697.41;7364449;19;20006;-63
2024/03/31 01:15:11;;;;;;;0.10;0.10;;;;;;;11.31;67.77;98702.72;7364769;19;20876;-63
2024/03/31 01:17:36;;;;;;;0.20;0.20;;;;;;;11.32;67.37;98701.78;7364655;19;20019;-63
2024/03/31 01:20:02;;;;;;;0.10;0.10;;;;;;;11.33;67.63;98704.28;7367664;19;20002;-64
2024/03/31 01:22:28;;;;;;;0.10;0.10;;;;;;;11.34;67.65;98705.13;7359650;19;20347;-63
2024/03/31 01:24:54;;;;;;;0.10;0.10;;;;;;;11.34;67.50;98708.59;7364549;19;20007;-63
2024/03/31 01:27:20;;;;;;;0.20;0.20;;;;;;;11.35;67.56;98712.03;7360279;19;20022;-64
2024/03/31 01:29:45;;;;;;;0.10;0.10;;;;;;;11.32;67.42;98709.63;7366116;19;20021;-63
2024/03/31 01:32:10;;;;;;;0.10;0.10;;;;;;;11.37;67.47;98718.03;7364207;19;20338;-63
2024/03/31 01:34:37;;;;;;;0.10;0.10;;;;;;;11.31;67.03;98715.78;7361304;19;20394;-63
2024/03/31 01:37:02;;;;;;;0.10;0.10;;;;;;;11.39;67.36;98724.00;7366259;19;20011;-63
2024/03/31 01:39:28;;;;;;;0.10;0.10;;;;;;;11.38;67.48;98738.00;7366287;19;20029;-62
2024/03/31 01:41:54;;;;;;;0.10;0.10;;;;;;;11.33;68.34;98727.81;7359584;19;20002;-62
2024/03/31 01:44:20;;;;;;;0.10;0.10;;;;;;;11.27;68.80;98730.78;7363165;19;21010;-62
2024/03/31 01:46:45;;;;;;;0.10;0.10;;;;;;;11.18;69.00;98745.19;7360821;19;19999;-61
2024/03/31 01:49:11;;;;;;;0.10;0.10;;;;;;;11.09;69.66;98737.03;7370139;19;20018;-62
2024/03/31 01:51:36;;;;;;;0.10;0.10;;;;;;;11.01;70.99;98721.81;7366302;19;20434;-61
2024/03/31 01:54:02;;;;;;;0.10;0.10;;;;;;;10.93;71.12;98721.38;7369478;19;20841;-60
2024/03/31 01:56:27;;;;;;;0.10;0.10;;;;;;;10.87;71.47;98721.72;7367594;19;20005;-62
2024/03/31 01:58:54;;;;;;;0.10;0.10;;;;;;;10.76;72.34;98713.66;7366598;19;20346;-62
2024/03/31 02:01:19;;;;;;;0.10;0.10;;;;;;;10.73;72.47;98719.03;7367654;19;20481;-62
2024/03/31 02:03:44;;;;;;;0.10;0.10;;;;;;;10.69;72.43;98723.56;7368802;19;19999;-62
2024/03/31 02:06:10;;;;;;;0.10;0.10;;;;;;;10.65;73.27;98706.44;7367576;19;20002;-63
2024/03/31 02:08:36;;;;;;;0.10;0.10;;;;;;;10.46;73.79;98679.63;7369465;19;20599;-63
2024/03/31 02:11:02;;;;;;;0.10;0.10;;;;;;;10.60;74.24;98698.84;7367165;19;20082;-63
2024/03/31 02:13:27;;;;;;;0.10;0.10;;;;;;;10.56;74.48;98696.47;7367848;19;20094;-62
2024/03/31 02:15:56;;;;;;;0.10;0.10;;;;;;;10.58;74.55;98685.00;7371702;19;20002;-63
2024/03/31 02:18:21;;;;;;;0.00;0.00;;;;;;;10.58;75.07;98681.56;7367043;19;20387;-62
2024/03/31 02:20:47;;;;;;;0.10;0.10;;;;;;;10.58;75.47;98685.00;7368686;19;20010;-63
2024/03/31 02:23:12;;;;;;;0.10;0.10;;;;;;;10.59;75.33;98686.72;7370083;19;20005;-64
2024/03/31 02:25:38;;;;;;;0.10;0.10;;;;;;;10.59;75.10;98696.28;7367528;19;20039;-63
2024/03/31 02:28:03;;;;;;;0.10;0.10;;;;;;;10.60;75.23;98704.06;7371164;19;19991;-63
2024/03/31 02:30:29;;;;;;;0.20;0.20;;;;;;;10.52;75.12;98695.78;7368822;19;20003;-63
2024/03/31 02:32:54;;;;;;;0.10;0.10;;;;;;;10.39;75.26;98668.66;7370271;19;20014;-64
2024/03/31 02:35:20;;;;;;;0.10;0.10;;;;;;;10.51;75.37;98688.06;7364557;19;20086;-63
2024/03/31 02:37:47;;;;;;;0.10;0.10;;;;;;;10.58;75.52;98695.44;7369863;19;19998;-63
2024/03/31 02:40:13;;;;;;;0.10;0.10;;;;;;;10.59;75.95;98694.56;7357247;19;20002;-63
2024/03/31 02:42:38;;;;;;;0.10;0.10;;;;;;;10.59;75.92;98691.94;7368171;19;20005;-64
2024/03/31 02:45:04;;;;;;;0.10;0.10;;;;;;;10.61;76.06;98699.69;7366404;19;20362;-64
2024/03/31 02:47:30;;;;;;;0.10;0.10;;;;;;;10.61;76.60;98700.53;7366915;19;20779;-63
2024/03/31 02:49:55;;;;;;;0.10;0.10;;;;;;;10.48;76.64;98673.41;7366432;19;19999;-64
2024/03/31 02:52:20;;;;;;;0.10;0.10;;;;;;;10.59;76.64;98686.72;7367225;19;20379;-64
2024/03/31 02:54:46;;;;;;;0.10;0.10;;;;;;;10.62;76.57;98696.97;7364065;19;20059;-64
2024/03/31 02:57:11;;;;;;;0.10;0.10;;;;;;;10.67;76.41;98690.66;7368720;19;20038;-63
2024/03/31 02:59:37;;;;;;;0.20;0.20;;;;;;;10.61;76.79;98679.63;7364246;19;20086;-64
2024/03/31 03:02:02;;;;;;;0.10;0.10;;;;;;;10.70;76.78;98682.69;7367686;19;20355;-64
2024/03/31 03:04:28;;;;;;;0.10;0.10;;;;;;;10.71;76.82;98674.75;7364158;19;20002;-64
2024/03/31 03:06:53;;;;;;;0.10;0.10;;;;;;;10.72;76.71;98665.16;7366876;19;20006;-64
2024/03/31 03:09:19;;;;;;;0.10;0.10;;;;;;;10.74;76.70;98673.72;7365351;19;20442;-64
2024/03/31 03:11:45;;;;;;;0.10;0.10;;;;;;;10.74;76.71;98663.28;7368627;19;20474;-64
2024/03/31 03:14:10;;;;;;;0.10;0.10;;;;;;;10.71;76.95;98647.81;7340720;19;20042;-64
2024/03/31 03:16:36;;;;;;;0.10;0.10;;;;;;;10.75;77.11;98654.56;7367951;19;20091;-64
2024/03/31 03:19:03;;;;;;;0.10;0.10;;;;;;;10.73;77.02;98661.59;7365185;19;19995;-64
2024/03/31 03:21:28;;;;;;;0.10;0.10;;;;;;;10.72;76.78;98654.72;7369564;19;20007;-64
2024/03/31 03:23:54;;;;;;;0.10;0.10;;;;;;;10.60;76.72;98636.19;7366907;19;20005;-64
2024/03/31 03:26:19;;;;;;;0.10;0.10;;;;;;;10.73;76.89;98645.94;7368013;19;19998;-64
2024/03/31 03:28:46;;;;;;;0.10;0.10;;;;;;;10.70;77.08;98649.59;7367323;19;19995;-64
2024/03/31 03:31:12;;;;;;;0.10;0.10;;;;;;;10.53;77.23;98603.53;7361089;19;20598;-64
2024/03/31 03:33:37;;;;;;;0.15;0.15;;;;;;;10.63;77.31;98633.41;7369174;19;20011;-64
2024/03/31 03:36:04;;;;;;;0.10;0.10;;;;;;;10.67;76.96;98625.41;7369246;19;20533;-64
2024/03/31 03:38:29;;;;;;;0.10;0.10;;;;;;;10.69;76.86;98636.59;7365193;19;19999;-64
2024/03/31 03:40:55;;;;;;;0.10;0.10;;;;;;;10.68;77.39;98637.53;7367247;19;20477;-65
2024/03/31 03:43:20;;;;;;;0.10;0.10;;;;;;;10.65;77.14;98631.56;7369131;19;20009;-64
2024/03/31 03:45:46;;;;;;;0.10;0.10;;;;;;;10.64;77.55;98635.09;7363619;19;20017;-65
2024/03/31 03:48:12;;;;;;;0.10;0.10;;;;;;;10.64;77.00;98637.72;7366742;19;19999;-64
2024/03/31 03:50:37;;;;;;;0.10;0.10;;;;;;;10.66;77.25;98642.84;7367373;19;20025;-64
2024/03/31 03:53:05;;;;;;;0.10;0.10;;;;;;;10.65;77.21;98644.63;7370757;19;20002;-65
2024/03/31 03:55:30;;;;;;;0.10;0.10;;;;;;;10.61;77.59;98645.72;7363276;19;19998;-64
2024/03/31 03:57:56;;;;;;;0.10;0.10;;;;;;;10.65;76.73;98649.84;7364167;19;20003;-65
2024/03/31 04:00:21;;;;;;;0.10;0.10;;;;;;;10.47;77.26;98619.53;7364532;19;20014;-64
2024/03/31 04:02:50;;;;;;;0.10;0.10;;;;;;;10.65;76.72;98644.63;7364410;19;20035;-65
2024/03/31 04:05:15;;;;;;;0.10;0.10;;;;;;;10.59;77.14;98634.53;7361747;19;20017;-64
2024/03/31 04:07:41;;;;;;;0.10;0.10;;;;;;;10.63;76.96;98640.38;7368261;19;20006;-64
2024/03/31 04:10:06;;;;;;;0.10;0.10;;;;;;;10.60;76.84;98640.59;7359677;19;20469;-64
2024/03/31 04:12:32;;;;;;;0.10;0.10;;;;;;;10.58;76.99;98640.66;7365286;19;20827;-64
2024/03/31 04:14:58;;;;;;;0.10;0.10;;;;;;;10.57;76.33;98625.91;7364412;19;20515;-64
2024/03/31 04:17:23;;;;;;;0.10;0.10;;;;;;;10.59;76.55;98639.75;7364967;19;20000;-65
2024/03/31 04:19:48;;;;;;;0.10;0.10;;;;;;;10.59;76.13;98638.88;7366982;19;20856;-64
2024/03/31 04:22:14;;;;;;;0.10;0.10;;;;;;;10.58;75.83;98645.88;7360786;19;20005;-64
2024/03/31 04:24:39;;;;;;;0.10;0.10;;;;;;;10.21;75.93;98581.81;7369372;19;20007;-65
2024/03/31 04:27:04;;;;;;;0.10;0.10;;;;;;;10.44;76.10;98624.06;7363107;19;19995;-64
2024/03/31 04:29:30;;;;;;;0.10;0.10;;;;;;;10.54;75.25;98630.47;7366445;19;20018;-64
2024/03/31 04:31:57;;;;;;;0.10;0.10;;;;;;;10.54;75.31;98639.16;7361459;19;20543;-64
2024/03/31 04:34:26;;;;;;;0.10;0.10;;;;;;;10.52;75.50;98632.31;7368241;19;20010;-65
2024/03/31 04:36:54;;;;;;;0.10;0.10;;;;;;;10.52;74.91;98637.53;7360543;19;20764;-64
2024/03/31 04:39:19;;;;;;;;;;;;;;;10.53;73.11;98640.06;7364119;19;20007;-64
2024/03/31 04:41:45;;;;;;;0.10;0.10;;;;;;;10.47;74.42;98635.19;7359435;19;19915;-64
2024/03/31 04:44:11;;;;;;;0.10;0.10;;;;;;;10.44;74.80;98637.97;7365934;19;20329;-63
2024/03/31 04:46:36;;;;;;;0.10;0.10;;;;;;;10.32;75.45;98625.59;7365571;19;20343;-64
2024/03/31 04:49:04;;;;;;;0.10;0.10;;;;;;;10.34;75.28;98635.03;7362292;19;20007;-65
2024/03/31 04:51:30;;;;;;;0.00;0.00;;;;;;;10.36;75.82;98641.00;7361013;19;20563;-65
2024/03/31 04:53:56;;;;;;;0.13;0.13;;;;;;;10.35;75.27;98641.09;7365073;19;20006;-64
2024/03/31 04:56:21;;;;;;;0.10;0.10;;;;;;;10.34;75.62;98645.47;7361519;19;20003;-64
2024/03/31 04:58:47;;;;;;;0.10;0.10;;;;;;;10.33;75.97;98640.31;7361389;19;20042;-64
2024/03/31 05:01:12;;;;;;;0.20;0.20;;;;;;;10.33;75.35;98655.97;7363658;19;20001;-64
2024/03/31 05:03:38;;;;;;;0.10;0.10;;;;;;;10.30;75.68;98637.88;7362959;19;19998;-64
2024/03/31 05:06:03;;;;;;;0.10;0.10;;;;;;;10.23;75.37;98637.34;7365262;19;19994;-64
2024/03/31 05:08:29;;;;;;;0.15;0.15;;;;;;;10.30;75.50;98648.31;7364655;19;20015;-63
2024/03/31 05:10:56;;;;;;;0.10;0.10;;;;;;;10.29;75.21;98641.41;7361242;19;20018;-63
2024/03/31 05:13:25;;;;;;;0.10;0.10;;;;;;;10.28;75.83;98650.16;7365062;19;20042;-63
2024/03/31 05:16:05;;;;;;;0.10;0.10;;;;;;;10.26;75.55;98638.97;7361691;19;20002;-62
2024/03/31 05:18:31;;;;;;;0.13;0.13;;;;;;;10.25;75.89;98645.13;7363477;19;20701;-63
2024/03/31 05:20:58;;;;;;;0.10;0.10;;;;;;;10.23;75.93;98649.53;7363733;19;20022;-63
2024/03/31 05:23:24;;;;;;;0.10;0.10;;;;;;;10.08;76.67;98628.56;7364712;19;20006;-63
2024/03/31 05:25:50;;;;;;;0.10;0.10;;;;;;;10.21;76.56;98657.44;7365820;19;20046;-62
2024/03/31 05:28:16;;;;;;;0.10;0.10;;;;;;;10.20;76.46;98647.13;7363237;19;20572;-63
2024/03/31 05:30:42;;;;;;;0.10;0.10;;;;;;;9.99;76.46;98625.63;7361408;19;20014;-63
2024/03/31 05:33:07;;;;;;;0.10;0.10;;;;;;;10.07;76.64;98641.69;7365660;19;20001;-63
2024/03/31 05:35:32;;;;;;;0.10;0.10;;;;;;;10.11;76.48;98649.28;7364982;19;19998;-63
2024/03/31 05:37:58;;;;;;;0.10;0.10;;;;;;;10.18;76.75;98661.97;7365452;19;20380;-63
2024/03/31 05:40:23;;;;;;;0.10;0.10;;;;;;;10.19;77.15;98661.06;7357073;19;20111;-61
2024/03/31 05:42:49;;;;;;;0.10;0.10;;;;;;;10.19;76.74;98668.88;7364471;19;20328;-63
2024/03/31 05:45:14;;;;;;;0.10;0.10;;;;;;;10.19;76.64;98668.88;7365647;19;20122;-63
2024/03/31 05:47:39;;;;;;;0.10;0.10;;;;;;;10.18;76.48;98667.19;7364977;19;20119;-63
2024/03/31 05:50:06;;;;;;;0.10;0.10;;;;;;;10.17;76.66;98662.91;7364558;19;20457;-64
2024/03/31 05:52:31;;;;;;;0.10;0.10;;;;;;;10.12;76.61;98666.59;7360915;19;19998;-63
2024/03/31 05:54:57;;;;;;;0.10;0.10;;;;;;;10.13;76.84;98673.50;7359968;19;20442;-65
2024/03/31 05:57:22;;;;;;;0.00;0.00;;;;;;;10.12;76.88;98674.44;7363816;19;20002;-63
2024/03/31 05:59:48;;;;;;;0.10;0.10;;;;;;;10.10;77.10;98670.22;7350299;19;20086;-63
2024/03/31 06:02:13;;;;;;;0.15;0.15;;;;;;;10.11;77.09;98675.34;7352374;19;20006;-63
2024/03/31 06:04:38;;;;;;;0.10;0.10;;;;;;;10.12;77.13;98673.59;7364359;19;20026;-63
2024/03/31 06:07:04;;;;;;;0.10;0.10;;;;;;;10.09;77.15;98664.19;7362173;19;20003;-63
2024/03/31 06:09:29;;;;;;;0.10;0.10;;;;;;;10.00;77.75;98651.63;7362904;19;20018;-62
2024/03/31 06:11:55;;;;;;;0.10;0.10;;;;;;;10.11;77.70;98670.13;7357576;19;19998;-64
2024/03/31 06:14:20;;;;;;;0.17;0.17;;;;;;;9.98;77.23;98648.22;7363785;19;19995;-63
2024/03/31 06:16:46;;;;;;;0.10;0.10;;;;;;;10.10;77.62;98673.69;7360465;19;19994;-63
2024/03/31 06:19:11;;;;;;;0.10;0.10;;;;;;;10.10;77.75;98673.69;7365297;19;20376;-63
2024/03/31 06:21:37;;;;;;;0.10;0.10;;;;;;;10.14;78.17;98680.41;7361078;19;19995;-63
2024/03/31 06:24:02;;;;;;;0.10;0.10;;;;;;;10.17;77.91;98689.00;7364976;19;19999;-63
2024/03/31 06:26:28;;;;;;;0.15;0.15;;;;;;;10.14;77.39;98685.63;7360290;19;20002;-63
2024/03/31 06:28:53;;;;;;;0.10;0.10;;;;;;;10.21;77.74;98690.53;7364473;19;21258;-64
2024/03/31 06:31:19;;;;;;;0.10;0.10;;;;;;;10.22;77.42;98686.97;7360519;19;20041;-63
2024/03/31 06:33:44;;;;;;;0.10;0.10;;;;;;;10.02;77.77;98644.53;7361823;19;20398;-63
2024/03/31 06:36:10;;;;;;;0.10;0.10;;;;;;;10.17;77.69;98673.34;7363225;19;20006;-63
2024/03/31 06:38:35;;;;;;;0.10;0.10;;;;;;;10.22;77.87;98684.38;7362905;19;20847;-63
2024/03/31 06:41:02;;;;;;;0.10;0.10;;;;;;;10.22;77.46;98671.34;7370904;19;20009;-63
2024/03/31 06:43:27;;;;;;;0.10;0.10;;;;;;;10.31;77.61;98684.75;7368355;19;20468;-64
2024/03/31 06:45:52;;;;;;;0.10;0.10;;;;;;;10.37;77.57;98688.78;7370120;19;20010;-63
2024/03/31 06:48:18;;;;;;;0.20;0.20;;;;;;;10.38;77.76;98686.09;7372454;19;20323;-63
2024/03/31 06:50:43;;;;;;;0.10;0.10;;;;;;;10.42;77.40;98686.78;7360809;19;20810;-63
2024/03/31 06:53:09;;;;;;;0.10;0.10;;;;;;;10.42;77.66;98692.00;7359902;19;20003;-63
2024/03/31 06:55:34;;;;;;;0.10;0.10;;;;;;;10.20;77.56;98652.31;7370764;19;20094;-64
2024/03/31 06:57:59;;;;;;;0.10;0.10;;;;;;;10.47;77.05;98691.75;7365766;19;20583;-64
2024/03/31 07:00:25;;;;;;;0.10;0.10;;;;;;;10.49;77.27;98695.97;7369202;19;20018;-63
2024/03/31 07:02:50;;;;;;;0.10;0.10;;;;;;;10.51;77.68;98701.09;7361632;19;20010;-64
2024/03/31 07:05:16;;;;;;;0.10;0.10;;;;;;;10.37;77.60;98684.41;7357113;19;20002;-64
2024/03/31 07:07:41;;;;;;;0.10;0.10;;;;;;;10.56;77.28;98712.13;7368980;19;20006;-64
2024/03/31 07:10:07;;;;;;;0.10;0.10;;;;;;;10.54;77.43;98712.22;7364929;19;20010;-63
2024/03/31 07:12:32;;;;;;;0.10;0.10;;;;;;;10.54;77.39;98699.19;7365034;19;20355;-63
2024/03/31 07:14:57;;;;;;;0.10;0.10;;;;;;;10.61;77.34;98710.97;7367839;19;20002;-63
2024/03/31 07:17:23;;;;;;;0.10;0.10;;;;;;;10.55;77.58;98695.63;7359316;19;20471;-64
2024/03/31 07:19:48;;;;;;;0.10;0.10;;;;;;;10.61;77.18;98703.13;7369113;19;20480;-64
2024/03/31 07:22:13;;;;;;;0.10;0.10;;;;;;;10.66;76.96;98721.16;7364885;19;20017;-64
2024/03/31 07:24:39;;;;;;;0.10;0.10;;;;;;;10.58;77.34;98700.69;7370536;19;20017;-64
2024/03/31 07:27:04;;;;;;;0.10;0.10;;;;;;;10.71;77.25;98716.53;7363699;19;20010;-63
2024/03/31 07:29:31;;;;;;;0.20;0.20;;;;;;;10.67;77.09;98708.94;7366444;19;19998;-64
2024/03/31 07:31:56;;;;;;;0.10;0.10;;;;;;;10.76;76.99;98719.72;7367452;19;20014;-64
2024/03/31 07:34:22;;;;;;;0.10;0.10;;;;;;;10.75;77.09;98725.03;7366368;19;20002;-64
2024/03/31 07:36:47;;;;;;;0.10;0.10;;;;;;;10.80;76.86;98730.84;7368959;19;20048;-64
2024/03/31 07:39:12;;;;;;;0.10;0.10;;;;;;;10.82;76.97;98731.59;7367158;19;20703;-64
2024/03/31 07:41:38;;;;;;;0.10;0.10;;;;;;;10.77;76.69;98720.56;7366416;19;20007;-64
2024/03/31 07:44:03;;;;;;;0.10;0.10;;;;;;;10.88;75.94;98736.47;7366928;19;20099;-64
2024/03/31 07:46:29;;;;;;;0.10;0.10;;;;;;;10.73;76.27;98714.66;7365863;19;20030;-63
2024/03/31 07:48:56;;;;;;;0.10;0.10;;;;;;;10.87;76.63;98726.97;7365932;19;20498;-64
2024/03/31 07:51:21;;;;;;;0.10;0.10;;;;;;;10.88;76.10;98733.84;7365781;19;20010;-64
2024/03/31 07:53:47;;;;;;;0.10;0.10;;;;;;;10.88;76.25;98736.47;7361674;19;19999;-64
2024/03/31 07:56:12;;;;;;;0.10;0.10;;;;;;;10.89;76.30;98745.97;7365470;19;20058;-64
2024/03/31 07:58:37;;;;;;;0.20;0.20;;;;;;;10.90;76.63;98747.69;7348746;19;20009;-64
2024/03/31 08:01:03;;;;;;;0.10;0.10;;;;;;;10.91;76.51;98741.53;7361627;19;20410;-64
2024/03/31 08:03:29;;;;;;;0.10;0.10;;;;;;;10.93;76.65;98742.28;7362095;19;20006;-64
2024/03/31 08:05:54;;;;;;;0.10;0.10;;;;;;;10.96;76.97;98741.28;7363959;19;20022;-64
2024/03/31 08:08:20;;;;;;;0.10;0.10;;;;;;;10.98;76.72;98742.88;7363061;19;19994;-63
2024/03/31 08:10:46;;;;;;;0.10;0.10;;;;;;;10.95;76.83;98735.22;7359121;19;20527;-64
2024/03/31 08:13:11;;;;;;;0.10;0.10;;;;;;;11.03;77.00;98746.06;7364096;19;20074;-64
2024/03/31 08:15:38;;;;;;;0.10;0.10;;;;;;;11.06;77.01;98742.44;7363425;19;20090;-64
2024/03/31 08:18:04;;;;;;;0.10;0.10;;;;;;;11.06;77.15;98743.28;7359670;19;19999;-64
2024/03/31 08:20:31;;;;;;;0.10;0.10;;;;;;;11.08;76.96;98746.66;7363252;19;20007;-64
2024/03/31 08:22:57;;;;;;;0.10;0.10;;;;;;;11.05;76.64;98735.53;7360400;19;20601;-64
2024/03/31 08:25:22;;;;;;;0.10;0.10;;;;;;;11.11;77.12;98750.88;7357235;19;20003;-64
2024/03/31 08:27:47;;;;;;;0.10;0.10;;;;;;;11.13;77.11;98743.78;7363837;19;20002;-64
2024/03/31 08:30:13;;;;;;;0.17;0.17;;;;;;;11.00;77.16;98722.75;7355420;19;20604;-64
2024/03/31 08:32:38;;;;;;;0.10;0.10;;;;;;;11.15;77.35;98745.41;7361590;19;20040;-64
2024/03/31 08:35:05;;;;;;;0.10;0.10;;;;;;;11.12;76.68;98748.16;7356562;19;20038;-64
2024/03/31 08:37:30;;;;;;;0.10;0.10;;;;;;;11.14;76.75;98741.06;7364149;19;20003;-64
2024/03/31 08:39:56;;;;;;;0.10;0.10;;;;;;;11.22;76.70;98752.88;7359565;19;20376;-64
2024/03/31 08:42:34;;;;;;;0.10;0.10;;;;;;;11.27;76.67;98750.84;7362311;19;20002;-64
2024/03/31 08:45:02;;;;;;;0.10;0.10;;;;;;;11.25;76.78;98755.31;7362888;19;20006;-64
2024/03/31 08:47:31;;;;;;;0.10;0.10;;;;;;;11.25;76.78;98763.13;7362247;19;19999;-64
2024/03/31 08:49:58;;;;;;;0.10;0.10;;;;;;;11.06;76.54;98732.84;7362097;19;20422;-64
2024/03/31 08:52:25;;;;;;;0.10;0.10;;;;;;;11.27;76.67;98776.97;7365585;19;20019;-64
2024/03/31 08:54:51;;;;;;;0.10;0.10;;;;;;;11.27;76.86;98763.91;7363515;19;20319;-64
2024/03/31 08:57:17;;;;;;;0.10;0.10;;;;;;;11.23;76.79;98762.41;7361994;19;20007;-64
2024/03/31 08:59:42;;;;;;;0.10;0.10;;;;;;;11.25;76.91;98769.19;7359022;19;20030;-64
2024/03/31 09:02:13;;;;;;;0.10;0.10;;;;;;;11.30;76.93;98777.63;7357344;19;20098;-64
2024/03/31 09:04:39;;;;;;;0.10;0.10;;;;;;;11.29;77.23;98775.94;7353186;19;20018;-64
2024/03/31 09:07:05;;;;;;;0.10;0.10;;;;;;;11.27;77.09;98780.44;7358740;19;20011;-64
2024/03/31 09:09:30;;;;;;;0.10;0.10;;;;;;;11.33;77.43;98777.47;7363519;19;20322;-64
2024/03/31 09:11:55;;;;;;;0.20;0.20;;;;;;;11.38;76.81;98782.44;7364923;19;20446;-64
2024/03/31 09:14:21;;;;;;;0.10;0.10;;;;;;;11.40;77.07;98781.44;7364370;19;20022;-64
2024/03/31 09:16:47;;;;;;;0.10;0.10;;;;;;;11.41;77.37;98763.97;7364115;19;20034;-64
2024/03/31 09:19:13;;;;;;;0.10;0.10;;;;;;;11.50;76.87;98779.09;7361802;19;20485;-64
2024/03/31 09:21:47;;;;;;;0.10;0.10;;;;;;;11.60;76.58;98779.44;7363567;19;20003;-64
2024/03/31 09:24:14;;;;;;;0.10;0.10;;;;;;;11.64;76.94;98771.31;7360994;19;20017;-64
2024/03/31 09:26:40;;;;;;;0.10;0.10;;;;;;;11.73;76.64;98774.34;7365070;19;19998;-64
2024/03/31 09:29:06;;;;;;;0.10;0.10;;;;;;;11.43;76.57;98720.28;7360048;19;20006;-64
2024/03/31 09:31:31;;;;;;;0.20;0.20;;;;;;;11.90;76.64;98777.69;7361261;19;20006;-64
2024/03/31 09:33:57;;;;;;;0.10;0.10;;;;;;;12.01;76.07;98784.03;7358118;19;20032;-64
2024/03/31 09:36:22;;;;;;;0.20;0.20;;;;;;;12.09;75.90;98782.66;7363725;19;20568;-64
2024/03/31 09:38:48;;;;;;;0.10;0.10;;;;;;;12.18;75.66;98776.91;7355957;19;20453;-63
2024/03/31 09:41:13;;;;;;;0.10;0.10;;;;;;;12.18;76.02;98774.28;7358650;19;20404;-64
2024/03/31 09:43:39;;;;;;;0.10;0.10;;;;;;;12.34;75.52;98783.81;7337004;19;20007;-64
2024/03/31 09:46:07;;;;;;;0.10;0.10;;;;;;;12.43;75.66;98784.09;7353249;19;20002;-64
2024/03/31 09:48:37;;;;;;;0.10;0.10;;;;;;;12.51;75.05;98783.63;7361035;19;20010;-64
2024/03/31 09:51:11;;;;;;;0.10;0.10;;;;;;;12.57;75.10;98783.28;7360340;19;21139;-64
2024/03/31 09:53:41;;;;;;;0.10;0.10;;;;;;;12.59;74.95;98780.56;7362169;19;20009;-64
2024/03/31 09:56:08;;;;;;;0.10;0.10;;;;;;;12.63;74.95;98788.13;7364534;19;20030;-64
2024/03/31 09:58:36;;;;;;;0.10;0.10;;;;;;;12.70;74.86;98794.66;7360800;19;20463;-64
2024/03/31 10:01:05;;;;;;;0.20;0.20;;;;;;;12.72;75.27;98784.06;7358744;19;20014;-64
2024/03/31 10:03:38;;;;;;;0.17;0.17;;;;;;;12.84;74.68;98785.94;7358960;19;20079;-63
2024/03/31 10:06:05;;;;;;;0.10;0.10;;;;;;;12.90;74.48;98793.41;7359253;19;20039;-64
2024/03/31 10:08:31;;;;;;;0.10;0.10;;;;;;;12.98;74.86;98793.78;7362278;19;20002;-64
2024/03/31 10:11:01;;;;;;;0.20;0.20;;;;;;;13.12;75.01;98789.44;7361841;19;20723;-64
2024/03/31 10:13:27;;;;;;;0.10;0.10;;;;;;;13.26;74.72;98785.97;7368390;19;19995;-64
2024/03/31 10:15:56;;;;;;;0.10;0.10;;;;;;;13.54;74.90;98783.25;7368503;19;20749;-64
2024/03/31 10:18:26;;;;;;;0.10;0.10;;;;;;;13.90;74.97;98782.59;7363723;19;20586;-64
2024/03/31 10:20:53;;;;;;;0.13;0.13;;;;;;;14.25;73.82;98782.00;7347577;19;20658;-64
2024/03/31 10:23:19;;;;;;;0.10;0.10;;;;;;;14.63;73.70;98792.50;7368399;19;20009;-64
2024/03/31 10:25:45;;;;;;;0.10;0.10;;;;;;;15.00;72.99;98795.16;7371522;19;20007;-64
2024/03/31 10:28:12;;;;;;;0.10;0.10;;;;;;;15.32;71.91;98796.31;7366667;19;20002;-64
2024/03/31 10:30:38;;;;;;;0.10;0.10;;;;;;;15.51;71.39;98800.22;7362256;19;20010;-64
2024/03/31 10:33:04;;;;;;;0.10;0.10;;;;;;;15.74;70.88;98798.56;7364721;19;20003;-64
2024/03/31 10:35:33;;;;;;;0.10;0.10;;;;;;;15.93;70.64;98800.69;7368832;19;20015;-64
2024/03/31 10:37:59;;;;;;;0.10;0.10;;;;;;;16.10;70.43;98802.88;7368286;19;20006;-64
2024/03/31 10:40:26;;;;;;;0.10;0.10;;;;;;;16.26;69.94;98803.38;7366578;19;20006;-64
2024/03/31 10:42:54;;;;;;;0.17;0.17;;;;;;;16.48;70.49;98801.75;7366277;19;20010;-64
2024/03/31 10:45:19;;;;;;;0.10;0.10;;;;;;;16.82;69.70;98794.69;7363828;19;20011;-64
2024/03/31 10:47:46;;;;;;;0.15;0.15;;;;;;;17.10;68.93;98798.63;7367406;19;20473;-63
2024/03/31 10:50:11;;;;;;;0.10;0.10;;;;;;;17.43;68.35;98797.69;7362950;19;20023;-63
2024/03/31 10:52:39;;;;;;;0.10;0.10;;;;;;;17.85;68.22;98790.75;7362081;19;20010;-64
2024/03/31 10:55:07;;;;;;;0.20;0.20;;;;;;;18.23;67.46;98799.88;7363924;19;20009;-64
2024/03/31 10:57:37;;;;;;;0.10;0.10;;;;;;;18.67;67.01;98792.63;7364083;19;20025;-64
2024/03/31 11:00:05;;;;;;;0.10;0.10;;;;;;;18.91;65.79;98790.50;7363226;19;20014;-64
2024/03/31 11:02:33;;;;;;;0.10;0.10;;;;;;;19.22;64.74;98792.25;7366222;19;21045;-64
2024/03/31 11:05:06;;;;;;;0.10;0.10;;;;;;;19.63;66.12;98786.75;7366166;19;20003;-64
2024/03/31 11:07:35;;;;;;;0.10;0.10;;;;;;;19.87;64.97;98791.66;7364665;19;20003;-64
2024/03/31 11:10:02;;;;;;;0.10;0.10;;;;;;;20.11;63.19;98785.03;7362740;19;20007;-64
2024/03/31 11:12:27;;;;;;;0.10;0.10;;;;;;;20.32;61.87;98782.22;7365388;19;20019;-64
2024/03/31 11:14:54;;;;;;;0.10;0.10;;;;;;;20.70;60.83;98794.56;7365328;19;20003;-64
2024/03/31 11:17:20;;;;;;;0.10;0.10;;;;;;;20.97;60.20;98794.56;7361454;19;20042;-64
2024/03/31 11:19:45;;;;;;;0.10;0.10;;;;;;;21.05;59.02;98795.66;7358979;19;19998;-63
2024/03/31 11:22:11;;;;;;;0.10;0.10;;;;;;;21.20;59.68;98788.84;7361794;19;20558;-63
2024/03/31 11:24:38;;;;;;;0.20;0.20;;;;;;;21.41;58.64;98808.03;7361835;19;20007;-63
2024/03/31 11:27:05;;;;;;;0.20;0.20;;;;;;;21.42;57.64;98788.44;7362668;19;20011;-63
2024/03/31 11:29:31;;;;;;;0.10;0.10;;;;;;;21.45;58.99;98808.56;7361917;19;20022;-63